createdAt,value
2023-04-16T00:00:48.404Z,17.95
2023-04-16T00:03:17.657Z,18.00
2023-04-16T00:05:45.541Z,18.70
2023-04-16T00:08:13.521Z,18.88
2023-04-16T00:10:41.339Z,17.92
2023-04-16T00:13:09.120Z,18.13
2023-04-16T00:15:36.818Z,20.15
2023-04-16T00:18:04.669Z,18.20
2023-04-16T00:20:33.739Z,18.27
2023-04-16T00:23:01.433Z,19.35
2023-04-16T00:25:29.243Z,19.08
2023-04-16T00:27:57.015Z,19.75
2023-04-16T00:30:24.754Z,18.17
2023-04-16T00:32:52.593Z,17.73
2023-04-16T00:35:20.668Z,19.52
2023-04-16T00:37:49.790Z,18.33
2023-04-16T00:40:17.641Z,19.05
2023-04-16T00:42:46.646Z,17.83
2023-04-16T00:45:14.495Z,17.30
2023-04-16T00:47:42.325Z,17.88
2023-04-16T00:50:12.444Z,17.65
2023-04-16T00:52:41.002Z,19.48
2023-04-16T00:55:13.236Z,18.37
2023-04-16T00:57:41.153Z,18.90
2023-04-16T01:00:09.890Z,19.30
2023-04-16T01:02:38.073Z,20.30
2023-04-16T01:05:06.874Z,20.05
2023-04-16T01:07:34.570Z,20.07
2023-04-16T01:10:03.066Z,21.38
2023-04-16T01:12:32.486Z,19.60
2023-04-16T01:15:00.741Z,20.42
2023-04-16T01:17:28.542Z,20.30
2023-04-16T01:19:59.787Z,19.20
2023-04-16T01:22:29.261Z,19.67
2023-04-16T01:24:56.961Z,20.05
2023-04-16T01:27:24.716Z,19.20
2023-04-16T01:29:52.718Z,19.13
2023-04-16T01:32:26.969Z,19.63
2023-04-16T01:34:54.810Z,20.02
2023-04-16T01:37:22.617Z,19.35
2023-04-16T01:39:51.708Z,20.45
2023-04-16T01:42:19.423Z,20.25
2023-04-16T01:44:48.407Z,18.33
2023-04-16T01:47:16.327Z,20.45
2023-04-16T01:49:45.616Z,20.33
2023-04-16T01:52:13.524Z,19.40
2023-04-16T01:54:42.284Z,20.80
2023-04-16T01:57:11.500Z,18.43
2023-04-16T01:59:39.383Z,19.63
2023-04-16T02:02:11.285Z,18.67
2023-04-16T02:04:40.685Z,17.90
2023-04-16T02:07:09.208Z,18.25
2023-04-16T02:09:38.155Z,17.10
2023-04-16T02:12:09.529Z,18.67
2023-04-16T02:14:38.855Z,18.45
2023-04-16T02:17:06.893Z,17.88
2023-04-16T02:19:44.208Z,17.33
2023-04-16T02:22:12.028Z,16.67
2023-04-16T02:24:40.462Z,16.52
2023-04-16T02:27:10.586Z,16.77
2023-04-16T02:29:40.494Z,16.77
2023-04-16T02:32:17.272Z,16.30
2023-04-16T02:34:46.742Z,14.23
2023-04-16T02:37:15.610Z,14.70
2023-04-16T02:39:43.941Z,14.68
2023-04-16T02:42:11.742Z,14.25
2023-04-16T02:44:40.987Z,15.27
2023-04-16T02:47:08.891Z,15.30
2023-04-16T02:49:37.194Z,13.38
2023-04-16T02:52:05.151Z,15.57
2023-04-16T02:54:32.932Z,14.05
2023-04-16T02:57:00.708Z,14.07
2023-04-16T02:59:28.503Z,14.33
2023-04-16T03:01:57.795Z,14.27
2023-04-16T03:04:25.813Z,15.05
2023-04-16T03:06:53.641Z,16.05
2023-04-16T03:09:21.720Z,15.98
2023-04-16T03:11:49.401Z,15.43
2023-04-16T03:14:17.136Z,14.90
2023-04-16T03:16:45.034Z,15.68
2023-04-16T03:19:14.090Z,14.93
2023-04-16T03:21:41.793Z,13.98
2023-04-16T03:24:09.521Z,14.93
2023-04-16T03:26:37.713Z,13.98
2023-04-16T03:29:05.763Z,15.18
2023-04-16T03:31:33.939Z,14.50
2023-04-16T03:34:01.815Z,14.65
2023-04-16T03:36:31.375Z,14.90
2023-04-16T03:38:59.081Z,15.18
2023-04-16T03:41:27.660Z,14.25
2023-04-16T03:43:55.526Z,13.05
2023-04-16T03:46:23.836Z,14.70
2023-04-16T03:48:51.650Z,12.83
2023-04-16T03:51:19.860Z,13.57
2023-04-16T03:53:48.960Z,13.25
2023-04-16T03:56:17.425Z,13.73
2023-04-16T03:58:45.288Z,12.85
2023-04-16T04:01:13.073Z,14.10
2023-04-16T04:03:41.289Z,13.52
2023-04-16T04:06:09.425Z,14.93
2023-04-16T04:08:37.282Z,15.50
2023-04-16T04:11:07.754Z,15.40
2023-04-16T04:13:36.616Z,16.17
2023-04-16T04:16:05.762Z,16.05
2023-04-16T04:18:33.645Z,16.60
2023-04-16T04:21:05.566Z,16.75
2023-04-16T04:23:34.293Z,17.02
2023-04-16T04:26:03.846Z,15.87
2023-04-16T04:28:34.194Z,16.67
2023-04-16T04:31:02.732Z,16.10
2023-04-16T04:33:32.100Z,15.50
2023-04-16T04:35:59.871Z,17.15
2023-04-16T04:38:28.586Z,16.47
2023-04-16T04:40:56.382Z,16.58
2023-04-16T04:43:25.336Z,17.33
2023-04-16T04:45:54.620Z,16.98
2023-04-16T04:48:26.439Z,16.90
2023-04-16T04:50:54.672Z,16.50
2023-04-16T04:53:22.379Z,16.05
2023-04-16T04:55:53.221Z,15.77
2023-04-16T04:58:23.461Z,15.80
2023-04-16T05:00:51.239Z,16.13
2023-04-16T05:03:22.691Z,15.83
2023-04-16T05:05:50.513Z,15.20
2023-04-16T05:08:18.240Z,16.02
2023-04-16T05:10:46.177Z,15.77
2023-04-16T05:13:13.891Z,15.25
2023-04-16T05:15:41.639Z,15.33
2023-04-16T05:18:09.452Z,15.38
2023-04-16T05:20:38.722Z,16.33
2023-04-16T05:23:06.743Z,14.80
2023-04-16T05:25:34.703Z,15.27
2023-04-16T05:28:02.422Z,14.73
2023-04-16T05:30:30.288Z,15.88
2023-04-16T05:32:58.050Z,16.60
2023-04-16T05:35:25.805Z,16.83
2023-04-16T05:37:54.861Z,18.23
2023-04-16T05:40:22.684Z,17.00
2023-04-16T05:42:50.428Z,17.83
2023-04-16T05:45:18.123Z,17.35
2023-04-16T05:47:45.858Z,17.60
2023-04-16T05:50:13.608Z,16.73
2023-04-16T05:52:41.766Z,15.90
2023-04-16T05:55:11.231Z,15.82
2023-04-16T05:57:38.960Z,15.45
2023-04-16T06:00:08.481Z,16.20
2023-04-16T06:02:42.457Z,15.63
2023-04-16T06:05:10.683Z,16.97
2023-04-16T06:07:38.434Z,16.67
2023-04-16T06:10:07.137Z,17.45
2023-04-16T06:12:36.180Z,16.35
2023-04-16T06:15:04.167Z,16.10
2023-04-16T06:17:31.945Z,14.00
2023-04-16T06:19:59.757Z,13.98
2023-04-16T06:22:27.666Z,15.38
2023-04-16T06:24:55.431Z,14.55
2023-04-16T06:27:23.249Z,16.30
2023-04-16T06:29:52.354Z,15.63
2023-04-16T06:32:20.205Z,14.77
2023-04-16T06:34:48.072Z,15.05
2023-04-16T06:37:16.203Z,14.48
2023-04-16T06:39:43.915Z,16.27
2023-04-16T06:42:11.794Z,14.70
2023-04-16T06:44:39.760Z,13.82
2023-04-16T06:47:09.032Z,14.50
2023-04-16T06:49:36.790Z,14.02
2023-04-16T06:52:05.919Z,14.27
2023-04-16T06:54:33.915Z,15.00
2023-04-16T06:57:01.634Z,14.60
2023-04-16T06:59:29.386Z,15.35
2023-04-16T07:01:57.769Z,13.85
2023-04-16T07:04:26.999Z,15.27
2023-04-16T07:06:54.751Z,15.53
2023-04-16T07:09:22.484Z,14.38
2023-04-16T07:11:50.193Z,14.27
2023-04-16T07:14:18.246Z,15.35
2023-04-16T07:16:46.231Z,15.95
2023-04-16T07:19:14.289Z,14.80
2023-04-16T07:21:43.781Z,15.30
2023-04-16T07:24:12.254Z,16.50
2023-04-16T07:26:39.995Z,15.68
2023-04-16T07:29:07.863Z,16.13
2023-04-16T07:31:35.722Z,15.90
2023-04-16T07:34:03.662Z,15.43
2023-04-16T07:36:31.803Z,15.18
2023-04-16T07:39:01.009Z,15.60
2023-04-16T07:41:29.451Z,17.23
2023-04-16T07:43:57.733Z,15.57
2023-04-16T07:46:28.349Z,15.77
2023-04-16T07:49:01.011Z,15.93
2023-04-16T07:51:28.758Z,14.63
2023-04-16T07:53:56.520Z,15.95
2023-04-16T07:56:25.930Z,15.07
2023-04-16T07:58:53.673Z,15.65
2023-04-16T08:01:21.460Z,15.13
2023-04-16T08:03:49.360Z,15.45
2023-04-16T08:06:17.244Z,15.65
2023-04-16T08:08:45.151Z,16.73
2023-04-16T08:11:12.963Z,15.82
2023-04-16T08:13:42.052Z,15.13
2023-04-16T08:16:09.988Z,15.73
2023-04-16T08:18:38.293Z,14.95
2023-04-16T08:21:06.155Z,14.77
2023-04-16T08:23:33.957Z,16.58
2023-04-16T08:26:02.015Z,16.35
2023-04-16T08:28:29.696Z,15.68
2023-04-16T08:30:58.809Z,14.65
2023-04-16T08:33:26.616Z,14.80
2023-04-16T08:35:54.554Z,15.10
2023-04-16T08:38:22.316Z,15.13
2023-04-16T08:40:50.573Z,14.57
2023-04-16T08:43:20.013Z,14.48
2023-04-16T08:45:49.309Z,14.20
2023-04-16T08:48:21.356Z,14.07
2023-04-16T08:50:53.248Z,14.65
2023-04-16T08:53:33.794Z,14.18
2023-04-16T08:56:05.381Z,14.75
2023-04-16T08:58:35.563Z,14.70
2023-04-16T09:01:04.056Z,15.48
2023-04-16T09:03:36.294Z,15.95
2023-04-16T09:06:05.532Z,15.35
2023-04-16T09:08:33.388Z,15.68
2023-04-16T09:11:01.199Z,15.40
2023-04-16T09:13:29.330Z,15.13
2023-04-16T09:15:57.948Z,14.90
2023-04-16T09:18:25.740Z,14.27
2023-04-16T09:20:56.300Z,13.90
2023-04-16T09:23:24.984Z,14.37
2023-04-16T09:25:52.697Z,14.23
2023-04-16T09:28:42.296Z,14.20
2023-04-16T09:31:11.305Z,13.20
2023-04-16T09:33:39.016Z,14.70
2023-04-16T09:36:08.301Z,13.97
2023-04-16T09:38:57.999Z,14.27
2023-04-16T09:41:27.131Z,14.95
2023-04-16T09:43:57.057Z,13.93
2023-04-16T09:46:26.076Z,13.57
2023-04-16T09:48:53.856Z,13.47
2023-04-16T09:51:22.911Z,13.02
2023-04-16T09:53:53.085Z,13.30
2023-04-16T09:56:25.844Z,12.30
2023-04-16T09:58:58.237Z,13.07
2023-04-16T10:01:26.287Z,12.20
2023-04-16T10:03:55.520Z,13.35
2023-04-16T10:06:27.182Z,13.90
2023-04-16T10:08:57.095Z,12.70
2023-04-16T10:11:25.653Z,13.85
2023-04-16T10:13:53.540Z,13.23
2023-04-16T10:16:23.331Z,13.90
2023-04-16T10:18:51.403Z,12.70
2023-04-16T10:21:19.960Z,13.45
2023-04-16T10:23:49.670Z,12.98
2023-04-16T10:26:19.260Z,13.23
2023-04-16T10:28:47.053Z,13.18
2023-04-16T10:31:15.397Z,12.63
2023-04-16T10:33:44.973Z,12.50
2023-04-16T10:36:15.332Z,13.55
2023-04-16T10:38:50.899Z,12.27
2023-04-16T10:41:20.464Z,12.43
2023-04-16T10:43:49.225Z,12.70
2023-04-16T10:46:22.110Z,13.52
2023-04-16T10:48:51.331Z,12.40
2023-04-16T10:51:31.753Z,12.17
2023-04-16T10:54:20.260Z,12.85
2023-04-16T10:56:48.441Z,12.35
2023-04-16T10:59:19.832Z,12.93
2023-04-16T11:01:49.396Z,12.88
2023-04-16T11:04:35.791Z,12.50
2023-04-16T11:07:19.988Z,12.10
2023-04-16T11:09:57.722Z,12.27
2023-04-16T11:12:28.987Z,11.82
2023-04-16T11:15:00.745Z,13.40
2023-04-16T11:17:30.557Z,12.87
2023-04-16T11:19:58.762Z,11.93
2023-04-16T11:22:27.196Z,12.60
2023-04-16T11:24:57.411Z,12.10
2023-04-16T11:27:25.474Z,13.25
2023-04-16T11:30:01.796Z,12.43
2023-04-16T11:32:33.010Z,12.15
2023-04-16T11:35:03.588Z,12.77
2023-04-16T11:37:34.082Z,13.57
2023-04-16T11:40:06.398Z,12.32
2023-04-16T11:42:37.197Z,12.10
2023-04-16T11:45:06.206Z,12.10
2023-04-16T11:47:44.526Z,12.27
2023-04-16T11:50:20.125Z,12.10
2023-04-16T11:52:48.744Z,12.07
2023-04-16T11:55:18.491Z,12.40
2023-04-16T11:57:46.822Z,11.32
2023-04-16T12:00:15.796Z,13.18
2023-04-16T12:02:46.070Z,12.45
2023-04-16T12:05:32.347Z,12.07
2023-04-16T12:08:03.356Z,11.23
2023-04-16T12:10:36.179Z,11.05
2023-04-16T12:13:13.143Z,12.45
2023-04-16T12:15:46.254Z,10.30
2023-04-16T12:18:16.223Z,12.07
2023-04-16T12:20:45.953Z,11.93
2023-04-16T12:23:24.743Z,11.32
2023-04-16T12:25:55.857Z,11.02
2023-04-16T12:28:31.737Z,11.45
2023-04-16T12:30:59.896Z,11.00
2023-04-16T12:33:27.709Z,12.20
2023-04-16T12:35:55.997Z,11.57
2023-04-16T12:38:25.403Z,12.57
2023-04-16T12:40:56.723Z,11.70
2023-04-16T12:43:24.914Z,11.77
2023-04-16T12:45:52.825Z,12.30
2023-04-16T12:48:20.680Z,10.60
2023-04-16T12:50:48.490Z,10.98
2023-04-16T12:53:16.360Z,11.13
2023-04-16T12:55:45.286Z,11.48
2023-04-16T12:58:14.363Z,11.37
2023-04-16T13:00:42.302Z,11.52
2023-04-16T13:03:10.268Z,11.40
2023-04-16T13:05:38.278Z,10.73
2023-04-16T13:08:06.365Z,11.15
2023-04-16T13:10:34.230Z,10.60
2023-04-16T13:13:02.031Z,10.88
2023-04-16T13:15:31.158Z,11.43
2023-04-16T13:17:58.950Z,10.55
2023-04-16T13:20:26.948Z,12.23
2023-04-16T13:22:54.992Z,10.27
2023-04-16T13:25:22.795Z,10.00
2023-04-16T13:27:50.570Z,11.82
2023-04-16T13:30:18.343Z,10.77
2023-04-16T13:32:47.525Z,10.93
2023-04-16T13:35:15.300Z,10.53
2023-04-16T13:37:43.119Z,10.77
2023-04-16T13:40:10.880Z,11.00
2023-04-16T13:42:38.614Z,10.57
2023-04-16T13:45:09.302Z,11.27
2023-04-16T13:47:37.410Z,11.20
2023-04-16T13:50:07.292Z,11.10
2023-04-16T13:52:35.291Z,10.80
2023-04-16T13:55:03.225Z,11.02
2023-04-16T13:57:32.021Z,10.38
2023-04-16T13:59:59.834Z,10.97
2023-04-16T14:02:27.800Z,10.65
2023-04-16T14:04:55.673Z,11.73
2023-04-16T14:07:27.006Z,11.02
2023-04-16T14:09:54.925Z,10.07
2023-04-16T14:12:22.683Z,10.80
2023-04-16T14:14:50.494Z,10.35
2023-04-16T14:17:18.268Z,10.52
2023-04-16T14:19:45.999Z,10.55
2023-04-16T14:22:17.603Z,10.85
2023-04-16T14:24:46.697Z,11.27
2023-04-16T14:27:14.468Z,10.77
2023-04-16T14:29:43.694Z,10.85
2023-04-16T14:32:12.517Z,10.55
2023-04-16T14:34:41.218Z,11.30
2023-04-16T14:37:11.194Z,11.07
2023-04-16T14:39:40.195Z,11.18
2023-04-16T14:42:10.693Z,11.65
2023-04-16T14:44:39.782Z,10.57
2023-04-16T14:47:08.755Z,11.75
2023-04-16T14:49:39.550Z,10.90
2023-04-16T14:52:15.257Z,11.23
2023-04-16T14:54:48.444Z,11.43
2023-04-16T14:57:18.530Z,11.88
2023-04-16T14:59:46.528Z,11.85
2023-04-16T15:02:14.446Z,12.80
2023-04-16T15:04:42.447Z,11.60
2023-04-16T15:07:10.354Z,11.13
2023-04-16T15:09:38.090Z,11.73
2023-04-16T15:12:06.213Z,12.07
2023-04-16T15:14:35.436Z,11.83
2023-04-16T15:17:03.335Z,11.25
2023-04-16T15:19:31.328Z,11.48
2023-04-16T15:22:00.472Z,11.52
2023-04-16T15:24:28.284Z,10.85
2023-04-16T15:26:56.165Z,10.37
2023-04-16T15:29:23.997Z,11.13
2023-04-16T15:31:53.408Z,10.50
2023-04-16T15:34:21.115Z,10.70
2023-04-16T15:36:48.824Z,10.75
2023-04-16T15:39:16.547Z,11.07
2023-04-16T15:41:57.582Z,10.95
2023-04-16T15:44:28.133Z,10.82
2023-04-16T15:46:57.189Z,10.05
2023-04-16T15:49:25.361Z,10.90
2023-04-16T15:51:53.184Z,9.97
2023-04-16T15:54:21.462Z,9.82
2023-04-16T15:56:50.763Z,10.82
2023-04-16T15:59:18.711Z,10.57
2023-04-16T16:01:46.579Z,10.82
2023-04-16T16:04:16.031Z,9.90
2023-04-16T16:06:44.060Z,10.25
2023-04-16T16:09:12.121Z,9.40
2023-04-16T16:11:40.230Z,10.07
2023-04-16T16:14:08.000Z,10.25
2023-04-16T16:16:36.298Z,10.50
2023-04-16T16:19:04.239Z,10.35
2023-04-16T16:21:33.765Z,10.38
2023-04-16T16:24:01.702Z,9.32
2023-04-16T16:26:29.939Z,9.75
2023-04-16T16:28:58.061Z,9.67
2023-04-16T16:31:26.023Z,9.77
2023-04-16T16:33:53.918Z,8.95
2023-04-16T16:36:22.670Z,10.50
2023-04-16T16:38:51.722Z,9.63
2023-04-16T16:41:19.514Z,9.57
2023-04-16T16:43:47.312Z,10.52
2023-04-16T16:46:15.113Z,9.57
2023-04-16T16:48:42.942Z,9.73
2023-04-16T16:51:11.454Z,10.02
2023-04-16T16:53:39.223Z,8.90
2023-04-16T16:56:08.440Z,9.88
2023-04-16T16:58:36.228Z,10.63
2023-04-16T17:01:04.095Z,9.95
2023-04-16T17:03:32.079Z,9.75
2023-04-16T17:06:05.319Z,10.00
2023-04-16T17:08:33.082Z,10.82
2023-04-16T17:11:03.892Z,10.63
2023-04-16T17:13:33.532Z,9.98
2023-04-16T17:16:01.673Z,10.10
2023-04-16T17:18:29.488Z,9.90
2023-04-16T17:20:57.384Z,10.35
2023-04-16T17:23:25.179Z,10.18
2023-04-16T17:25:52.967Z,10.35
2023-04-16T17:28:21.427Z,10.68
2023-04-16T17:30:54.150Z,10.20
2023-04-16T17:33:22.078Z,10.75
2023-04-16T17:35:49.970Z,10.57
2023-04-16T17:38:17.694Z,10.27
2023-04-16T17:40:45.439Z,10.68
2023-04-16T17:43:13.210Z,10.53
2023-04-16T17:45:41.008Z,11.15
2023-04-16T17:48:10.441Z,10.50
2023-04-16T17:50:39.613Z,11.05
2023-04-16T17:53:07.666Z,10.77
2023-04-16T17:55:35.635Z,10.87
2023-04-16T17:58:04.210Z,10.15
2023-04-16T18:00:32.095Z,11.18
2023-04-16T18:03:00.076Z,10.93
2023-04-16T18:05:31.509Z,11.25
2023-04-16T18:07:59.310Z,10.13
2023-04-16T18:10:27.125Z,10.60
2023-04-16T18:12:54.968Z,11.38
2023-04-16T18:15:22.767Z,11.18
2023-04-16T18:17:50.960Z,12.55
2023-04-16T18:20:19.674Z,10.63
2023-04-16T18:22:48.819Z,10.15
2023-04-16T18:25:16.890Z,11.80
2023-04-16T18:27:44.802Z,12.00
2023-04-16T18:30:23.135Z,11.13
2023-04-16T18:33:06.955Z,10.80
2023-04-16T18:35:41.795Z,10.30
2023-04-16T18:38:10.994Z,10.57
2023-04-16T18:40:38.844Z,11.75
2023-04-16T18:43:06.707Z,11.23
2023-04-16T18:45:34.724Z,11.33
2023-04-16T18:48:04.191Z,10.90
2023-04-16T18:50:32.015Z,11.18
2023-04-16T18:52:59.801Z,12.68
2023-04-16T18:55:30.070Z,10.98
2023-04-16T18:57:57.848Z,11.67
2023-04-16T19:00:25.848Z,11.70
2023-04-16T19:02:53.847Z,10.90
2023-04-16T19:05:22.953Z,11.82
2023-04-16T19:07:50.971Z,11.52
2023-04-16T19:10:18.755Z,11.10
2023-04-16T19:12:47.885Z,10.98
2023-04-16T19:15:15.701Z,10.65
2023-04-16T19:17:43.550Z,11.32
2023-04-16T19:20:12.646Z,11.40
2023-04-16T19:22:40.787Z,11.30
2023-04-16T19:25:09.388Z,10.88
2023-04-16T19:27:37.210Z,11.98
2023-04-16T19:30:07.705Z,11.45
2023-04-16T19:32:35.583Z,11.07
2023-04-16T19:35:03.784Z,12.20
2023-04-16T19:37:31.510Z,11.95
2023-04-16T19:39:59.689Z,12.95
2023-04-16T19:42:27.433Z,11.88
2023-04-16T19:44:55.366Z,11.50
2023-04-16T19:47:24.485Z,10.90
2023-04-16T19:49:52.249Z,11.60
2023-04-16T19:52:20.032Z,11.82
2023-04-16T19:54:47.817Z,11.40
2023-04-16T19:57:15.562Z,11.80
2023-04-16T19:59:43.313Z,11.03
2023-04-16T20:02:11.362Z,11.70
2023-04-16T20:04:40.501Z,11.05
2023-04-16T20:07:08.335Z,11.20
2023-04-16T20:09:36.138Z,11.93
2023-04-16T20:12:03.857Z,11.47
2023-04-16T20:14:31.710Z,10.32
2023-04-16T20:16:59.541Z,10.73
2023-04-16T20:19:31.435Z,10.73
2023-04-16T20:22:00.778Z,11.88
2023-04-16T20:24:30.987Z,11.20
2023-04-16T20:26:58.821Z,10.43
2023-04-16T20:29:27.021Z,11.10
2023-04-16T20:31:54.774Z,10.77
2023-04-16T20:34:22.459Z,11.07
2023-04-16T20:36:50.464Z,10.57
2023-04-16T20:39:20.407Z,10.00
2023-04-16T20:41:57.044Z,10.73
2023-04-16T20:44:26.131Z,10.00
2023-04-16T20:46:55.537Z,10.10
2023-04-16T20:49:24.821Z,9.30
2023-04-16T20:51:52.552Z,9.25
2023-04-16T20:54:21.629Z,10.23
2023-04-16T20:56:50.355Z,9.93
2023-04-16T20:59:18.188Z,9.75
2023-04-16T21:01:47.463Z,9.80
2023-04-16T21:04:15.634Z,10.10
2023-04-16T21:06:43.967Z,9.52
2023-04-16T21:09:12.290Z,9.52
2023-04-16T21:11:41.647Z,10.00
2023-04-16T21:14:09.423Z,9.33
2023-04-16T21:16:37.225Z,9.30
2023-04-16T21:19:05.119Z,9.38
2023-04-16T21:21:33.235Z,8.55
2023-04-16T21:24:01.117Z,9.68
2023-04-16T21:26:29.085Z,9.40
2023-04-16T21:28:58.126Z,9.27
2023-04-16T21:31:26.076Z,9.23
2023-04-16T21:33:53.856Z,9.70
2023-04-16T21:36:21.610Z,9.50
2023-04-16T21:38:49.355Z,9.37
2023-04-16T21:41:17.376Z,8.95
2023-04-16T21:43:45.096Z,9.98
2023-04-16T21:46:14.244Z,9.48
2023-04-16T21:48:41.942Z,10.40
2023-04-16T21:51:10.042Z,9.13
2023-04-16T21:53:39.002Z,9.32
2023-04-16T21:56:07.695Z,10.00
2023-04-16T21:58:35.436Z,9.02
2023-04-16T22:01:03.219Z,10.82
2023-04-16T22:03:33.445Z,10.30
2023-04-16T22:06:01.746Z,10.30
2023-04-16T22:08:30.550Z,10.40
2023-04-16T22:10:59.160Z,10.27
2023-04-16T22:13:27.384Z,10.05
2023-04-16T22:15:55.871Z,10.20
2023-04-16T22:18:25.486Z,9.75
2023-04-16T22:20:55.553Z,10.38
2023-04-16T22:23:23.745Z,9.90
2023-04-16T22:25:52.098Z,9.95
2023-04-16T22:28:19.987Z,10.50
2023-04-16T22:30:47.703Z,9.70
2023-04-16T22:33:15.625Z,10.10
2023-04-16T22:35:43.474Z,10.35
2023-04-16T22:38:12.567Z,10.55
2023-04-16T22:40:40.403Z,10.13
2023-04-16T22:43:08.169Z,10.00
2023-04-16T22:45:37.427Z,9.10
2023-04-16T22:48:05.566Z,10.18
2023-04-16T22:50:33.313Z,9.57
2023-04-16T22:53:01.017Z,9.50
2023-04-16T22:55:30.102Z,10.27
2023-04-16T22:57:57.851Z,10.10
2023-04-16T23:00:25.537Z,9.43
2023-04-16T23:02:53.369Z,10.13
2023-04-16T23:05:21.280Z,8.80
2023-04-16T23:07:48.986Z,9.25
2023-04-16T23:10:16.993Z,10.18
2023-04-16T23:12:46.093Z,9.85
2023-04-16T23:15:14.415Z,10.50
2023-04-16T23:17:42.318Z,9.90
2023-04-16T23:20:12.125Z,9.93
2023-04-16T23:22:39.887Z,9.88
2023-04-16T23:25:08.839Z,10.18
2023-04-16T23:27:37.514Z,10.32
2023-04-16T23:30:08.671Z,10.00
2023-04-16T23:32:36.588Z,10.20
2023-04-16T23:35:04.465Z,10.13
2023-04-16T23:37:32.321Z,10.50
2023-04-16T23:40:00.050Z,11.00
2023-04-16T23:42:27.859Z,10.00
2023-04-16T23:44:56.096Z,10.93
2023-04-16T23:47:25.412Z,10.43
2023-04-16T23:49:53.128Z,11.20
2023-04-16T23:52:21.272Z,11.13
2023-04-16T23:54:49.060Z,11.50
2023-04-16T23:57:16.814Z,10.75
2023-04-16T23:59:44.581Z,10.88
